createdAt,value
2022-09-21T00:01:28.634Z,0.88
2022-09-21T00:04:00.776Z,0.90
2022-09-21T00:06:32.093Z,0.73
2022-09-21T00:08:58.741Z,0.73
2022-09-21T00:11:30.772Z,1.13
2022-09-21T00:14:00.838Z,0.90
2022-09-21T00:16:28.416Z,0.70
2022-09-21T00:18:55.439Z,0.98
2022-09-21T00:21:21.957Z,0.88
2022-09-21T00:23:48.600Z,0.82
2022-09-21T00:26:18.067Z,0.80
2022-09-21T00:28:44.942Z,0.80
2022-09-21T00:31:14.263Z,1.08
2022-09-21T00:33:42.255Z,0.90
2022-09-21T00:36:12.093Z,0.73
2022-09-21T00:38:38.591Z,0.70
2022-09-21T00:41:07.290Z,0.70
2022-09-21T00:43:35.672Z,0.80
2022-09-21T00:46:07.139Z,0.80
2022-09-21T00:48:33.820Z,0.68
2022-09-21T00:51:04.317Z,0.70
2022-09-21T00:53:32.018Z,0.60
2022-09-21T00:55:59.440Z,0.98
2022-09-21T00:58:31.050Z,1.08
2022-09-21T01:00:58.830Z,0.70
2022-09-21T01:03:25.530Z,0.65
2022-09-21T01:05:51.912Z,0.90
2022-09-21T01:08:19.777Z,0.90
2022-09-21T01:11:16.186Z,0.75
2022-09-21T01:14:02.296Z,0.75
2022-09-21T01:16:40.533Z,0.98
2022-09-21T01:19:16.218Z,0.90
2022-09-21T01:22:01.428Z,0.70
2022-09-21T01:24:42.838Z,1.00
2022-09-21T01:27:21.427Z,1.30
2022-09-21T01:29:54.655Z,1.10
2022-09-21T01:32:30.188Z,0.75
2022-09-21T01:35:07.909Z,0.80
2022-09-21T01:37:41.581Z,0.82
2022-09-21T01:40:12.470Z,0.90
2022-09-21T01:42:40.912Z,0.80
2022-09-21T01:45:09.159Z,1.05
2022-09-21T01:47:37.016Z,0.90
2022-09-21T01:50:06.285Z,0.80
2022-09-21T01:52:46.885Z,0.90
2022-09-21T01:55:16.707Z,1.08
2022-09-21T01:57:48.427Z,0.90
2022-09-21T02:00:16.012Z,1.10
2022-09-21T02:02:48.244Z,1.20
2022-09-21T02:05:16.410Z,1.10
2022-09-21T02:07:43.133Z,0.90
2022-09-21T02:10:15.578Z,1.20
2022-09-21T02:12:42.230Z,1.10
2022-09-21T02:15:09.316Z,0.90
2022-09-21T02:17:58.727Z,1.08
2022-09-21T02:20:30.729Z,1.00
2022-09-21T02:23:15.387Z,1.10
2022-09-21T02:25:57.543Z,1.15
2022-09-21T02:28:48.297Z,0.95
2022-09-21T02:31:42.228Z,0.95
2022-09-21T02:34:33.342Z,0.90
2022-09-21T02:37:10.244Z,0.90
2022-09-21T02:39:50.211Z,1.02
2022-09-21T02:42:28.085Z,1.05
2022-09-21T02:45:09.768Z,1.40
2022-09-21T02:47:46.413Z,1.40
2022-09-21T02:50:18.174Z,1.17
2022-09-21T02:52:44.639Z,1.40
2022-09-21T02:55:11.717Z,1.60
2022-09-21T02:57:38.523Z,1.20
2022-09-21T03:00:06.485Z,1.20
2022-09-21T03:02:40.718Z,1.40
2022-09-21T03:05:08.192Z,1.42
2022-09-21T03:07:34.607Z,1.30
2022-09-21T03:10:01.303Z,1.30
2022-09-21T03:12:27.926Z,1.40
2022-09-21T03:14:54.334Z,1.20
2022-09-21T03:17:20.723Z,1.30
2022-09-21T03:19:47.117Z,1.50
2022-09-21T03:22:13.507Z,1.42
2022-09-21T03:24:45.886Z,1.30
2022-09-21T03:27:16.852Z,1.38
2022-09-21T03:29:43.386Z,1.50
2022-09-21T03:32:09.848Z,1.90
2022-09-21T03:34:36.426Z,2.40
2022-09-21T03:37:05.188Z,1.77
2022-09-21T03:39:31.782Z,1.70
2022-09-21T03:41:58.670Z,1.90
2022-09-21T03:44:25.817Z,1.40
2022-09-21T03:46:53.831Z,1.52
2022-09-21T03:49:20.303Z,1.75
2022-09-21T03:51:46.704Z,1.95
2022-09-21T03:54:13.137Z,1.42
2022-09-21T03:56:39.530Z,1.30
2022-09-21T03:59:08.605Z,1.60
2022-09-21T04:01:38.535Z,1.52
2022-09-21T04:04:05.098Z,1.70
2022-09-21T04:06:31.544Z,1.35
2022-09-21T04:08:57.953Z,1.80
2022-09-21T04:11:24.613Z,2.25
2022-09-21T04:13:56.902Z,1.92
2022-09-21T04:16:24.506Z,1.90
2022-09-21T04:18:51.362Z,1.85
2022-09-21T04:21:19.053Z,2.50
2022-09-21T04:23:46.589Z,2.05
2022-09-21T04:26:41.068Z,1.73
2022-09-21T04:29:07.583Z,1.80
2022-09-21T04:31:34.376Z,2.10
2022-09-21T04:34:00.770Z,2.40
2022-09-21T04:36:28.195Z,2.08
2022-09-21T04:38:54.907Z,2.40
2022-09-21T04:41:21.302Z,2.05
2022-09-21T04:43:48.585Z,2.10
2022-09-21T04:46:17.045Z,2.13
2022-09-21T04:48:43.517Z,1.80
2022-09-21T04:51:10.526Z,2.15
2022-09-21T04:53:38.485Z,2.83
2022-09-21T04:56:06.026Z,2.65
2022-09-21T04:58:32.829Z,2.83
2022-09-21T05:00:59.591Z,2.92
2022-09-21T05:03:26.719Z,2.63
2022-09-21T05:05:55.058Z,2.95
2022-09-21T05:08:40.529Z,3.50
2022-09-21T05:11:07.737Z,3.25
2022-09-21T05:13:34.117Z,2.90
2022-09-21T05:16:00.612Z,3.50
2022-09-21T05:18:27.094Z,3.35
2022-09-21T05:20:57.377Z,2.70
2022-09-21T05:23:24.430Z,3.17
2022-09-21T05:25:50.940Z,4.25
2022-09-21T05:28:18.759Z,3.30
2022-09-21T05:31:07.244Z,3.65
2022-09-21T05:33:34.714Z,3.42
2022-09-21T05:36:12.517Z,3.58
2022-09-21T05:38:39.116Z,3.50
2022-09-21T05:41:06.120Z,4.05
2022-09-21T05:43:32.746Z,3.72
2022-09-21T05:46:21.033Z,4.43
2022-09-21T05:49:29.414Z,4.20
2022-09-21T05:52:22.836Z,5.03
2022-09-21T05:55:00.092Z,4.85
2022-09-21T05:57:34.231Z,5.93
2022-09-21T06:00:14.833Z,5.10
2022-09-21T06:02:41.140Z,4.70
2022-09-21T06:05:12.050Z,4.28
2022-09-21T06:07:38.462Z,3.90
2022-09-21T06:10:05.387Z,4.00
2022-09-21T06:12:31.990Z,4.75
2022-09-21T06:14:58.505Z,3.35
2022-09-21T06:17:27.297Z,3.50
2022-09-21T06:19:54.085Z,4.30
2022-09-21T06:22:20.537Z,3.80
2022-09-21T06:24:46.942Z,3.75
2022-09-21T06:27:13.348Z,3.72
2022-09-21T06:29:39.792Z,3.42
2022-09-21T06:32:06.178Z,3.42
2022-09-21T06:34:32.674Z,3.60
2022-09-21T06:36:59.066Z,3.30
2022-09-21T06:39:25.478Z,3.67
2022-09-21T06:41:52.203Z,3.33
2022-09-21T06:44:18.650Z,3.17
2022-09-21T06:46:45.092Z,3.50
2022-09-21T06:49:11.497Z,3.70
2022-09-21T06:51:37.924Z,3.78
2022-09-21T06:54:04.497Z,3.67
2022-09-21T06:56:30.891Z,3.42
2022-09-21T06:58:57.321Z,4.13
2022-09-21T07:01:24.623Z,3.42
2022-09-21T07:03:51.949Z,3.58
2022-09-21T07:06:18.804Z,3.03
2022-09-21T07:11:32.133Z,3.80
2022-09-21T07:13:58.633Z,2.80
2022-09-21T07:16:25.054Z,2.42
2022-09-21T07:18:51.475Z,2.97
2022-09-21T07:21:17.853Z,2.80
2022-09-21T07:23:44.285Z,2.65
2022-09-21T07:26:12.705Z,2.70
2022-09-21T07:28:39.606Z,2.50
2022-09-21T07:31:08.658Z,2.33
2022-09-21T07:33:36.328Z,2.17
2022-09-21T07:36:09.857Z,1.65
2022-09-21T07:38:41.569Z,1.92
2022-09-21T07:41:09.103Z,1.90
2022-09-21T07:43:35.558Z,1.60
2022-09-21T07:46:02.232Z,2.10
2022-09-21T07:48:29.043Z,2.30
2022-09-21T07:50:57.573Z,1.60
2022-09-21T07:53:24.003Z,1.67
2022-09-21T07:55:50.404Z,2.00
2022-09-21T07:58:35.428Z,1.80
2022-09-21T08:01:06.469Z,1.92
2022-09-21T08:03:32.916Z,2.63
2022-09-21T08:05:59.587Z,1.70
2022-09-21T08:08:26.008Z,2.00
2022-09-21T08:10:54.471Z,1.95
2022-09-21T08:13:20.883Z,1.83
2022-09-21T08:15:50.095Z,2.10
2022-09-21T08:18:16.875Z,1.75
2022-09-21T08:20:43.895Z,2.03
2022-09-21T08:23:10.754Z,2.22
2022-09-21T08:25:37.161Z,2.00
2022-09-21T08:28:08.795Z,2.42
2022-09-21T08:30:36.156Z,2.25
2022-09-21T08:33:03.465Z,2.30
2022-09-21T08:35:29.883Z,1.85
2022-09-21T08:37:56.311Z,2.15
2022-09-21T08:40:22.905Z,1.95
2022-09-21T08:43:00.977Z,2.22
2022-09-21T08:45:33.750Z,1.80
2022-09-21T08:48:03.708Z,2.00
2022-09-21T08:50:42.277Z,2.50
2022-09-21T08:53:15.405Z,2.20
2022-09-21T08:55:42.020Z,3.10
2022-09-21T08:58:26.046Z,2.28
2022-09-21T09:01:24.799Z,2.70
2022-09-21T09:04:05.787Z,2.13
2022-09-21T09:06:51.191Z,2.38
2022-09-21T09:09:45.362Z,2.47
2022-09-21T09:12:44.170Z,2.38
2022-09-21T09:15:17.282Z,3.17
2022-09-21T09:18:00.329Z,3.10
2022-09-21T09:20:36.862Z,3.05
2022-09-21T09:23:11.638Z,2.28
2022-09-21T09:25:40.699Z,2.53
2022-09-21T09:28:37.437Z,2.25
2022-09-21T09:31:13.671Z,2.08
2022-09-21T09:33:53.114Z,1.60
2022-09-21T09:36:34.726Z,1.45
2022-09-21T09:39:12.789Z,1.98
2022-09-21T09:42:02.525Z,2.38
2022-09-21T09:44:53.408Z,2.10
2022-09-21T09:47:38.492Z,2.08
2022-09-21T09:50:14.080Z,2.28
2022-09-21T09:52:40.718Z,2.60
2022-09-21T09:55:20.096Z,2.30
2022-09-21T09:57:47.873Z,2.20
2022-09-21T10:00:16.214Z,2.08
2022-09-21T10:02:54.045Z,2.40
2022-09-21T10:05:31.031Z,2.40
2022-09-21T10:07:57.530Z,2.55
2022-09-21T10:10:32.981Z,2.78
2022-09-21T10:13:11.866Z,2.20
2022-09-21T10:15:49.342Z,2.00
2022-09-21T10:18:19.257Z,1.48
2022-09-21T10:20:57.206Z,1.70
2022-09-21T10:23:24.334Z,1.90
2022-09-21T10:26:02.960Z,1.48
2022-09-21T10:28:29.917Z,1.50
2022-09-21T10:31:31.883Z,1.17
2022-09-21T10:34:03.956Z,1.00
2022-09-21T10:36:37.898Z,0.73
2022-09-21T10:39:31.100Z,0.77
2022-09-21T10:41:58.665Z,0.80
2022-09-21T10:44:34.992Z,0.43
2022-09-21T10:47:16.614Z,0.70
2022-09-21T10:49:47.467Z,0.70
2022-09-21T10:52:14.094Z,0.70
2022-09-21T10:54:41.691Z,0.60
2022-09-21T10:57:10.425Z,0.70
2022-09-21T10:59:37.335Z,0.80
2022-09-21T11:02:42.992Z,0.90
2022-09-21T11:05:14.779Z,0.82
2022-09-21T11:07:52.326Z,0.60
2022-09-21T11:10:24.364Z,0.80
2022-09-21T11:13:16.881Z,0.90
2022-09-21T11:15:55.835Z,0.82
2022-09-21T11:18:30.530Z,0.73
2022-09-21T11:21:06.209Z,0.50
2022-09-21T11:23:41.584Z,1.15
2022-09-21T11:26:24.086Z,0.88
2022-09-21T11:29:17.570Z,0.63
2022-09-21T11:32:07.374Z,0.85
2022-09-21T11:35:02.666Z,0.70
2022-09-21T11:37:58.937Z,0.70
2022-09-21T11:40:32.977Z,0.52
2022-09-21T11:43:08.514Z,0.50
2022-09-21T11:45:46.132Z,0.30
2022-09-21T11:48:31.244Z,0.35
2022-09-21T11:51:13.979Z,0.30
2022-09-21T11:54:20.414Z,0.30
2022-09-21T11:57:25.717Z,0.30
2022-09-21T12:00:07.866Z,0.32
2022-09-21T12:03:06.490Z,0.30
2022-09-21T12:05:56.419Z,0.30
2022-09-21T12:08:58.379Z,0.25
2022-09-21T12:11:35.459Z,0.35
2022-09-21T12:14:19.098Z,0.30
2022-09-21T12:17:10.320Z,0.40
2022-09-21T12:20:10.616Z,0.50
2022-09-21T12:22:41.346Z,0.30
2022-09-21T12:25:10.751Z,0.40
2022-09-21T12:27:40.546Z,0.30
2022-09-21T12:30:21.280Z,0.40
2022-09-21T12:32:53.148Z,0.47
2022-09-21T12:35:34.469Z,0.43
2022-09-21T12:38:09.207Z,0.22
2022-09-21T12:40:43.450Z,0.40
2022-09-21T12:43:32.829Z,0.30
2022-09-21T12:46:16.298Z,0.30
2022-09-21T12:48:45.059Z,0.20
2022-09-21T12:51:21.785Z,0.30
2022-09-21T12:53:51.065Z,0.43
2022-09-21T12:56:28.480Z,0.40
2022-09-21T12:59:08.967Z,0.30
2022-09-21T13:01:43.729Z,0.30
2022-09-21T13:04:45.566Z,0.35
2022-09-21T13:07:18.533Z,0.40
2022-09-21T13:09:46.126Z,0.30
2022-09-21T13:12:20.554Z,0.40
2022-09-21T13:14:52.874Z,0.30
2022-09-21T13:17:24.933Z,0.35
2022-09-21T13:19:58.152Z,0.43
2022-09-21T13:22:26.130Z,0.60
2022-09-21T13:25:09.298Z,0.40
2022-09-21T13:28:00.777Z,0.45
2022-09-21T13:30:46.318Z,0.25
2022-09-21T13:33:18.883Z,0.40
2022-09-21T13:35:48.258Z,0.43
2022-09-21T13:38:51.029Z,0.47
2022-09-21T13:41:17.387Z,0.30
2022-09-21T13:43:58.482Z,0.60
2022-09-21T13:46:36.745Z,0.30
2022-09-21T13:49:13.788Z,0.55
2022-09-21T13:52:30.000Z,0.50
2022-09-21T13:55:05.806Z,0.40
2022-09-21T13:57:38.114Z,0.40
2022-09-21T14:00:13.617Z,0.40
2022-09-21T14:02:47.140Z,0.38
2022-09-21T14:05:41.077Z,0.40
2022-09-21T14:08:22.588Z,0.40
2022-09-21T14:11:08.367Z,0.40
2022-09-21T14:13:37.211Z,0.30
2022-09-21T14:16:36.416Z,0.30
2022-09-21T14:19:26.902Z,0.40
2022-09-21T14:22:08.508Z,0.40
2022-09-21T14:24:38.151Z,0.40
2022-09-21T14:27:30.820Z,0.40
2022-09-21T14:30:16.832Z,0.50
2022-09-21T14:32:47.258Z,0.50
2022-09-21T14:35:18.484Z,1.10
2022-09-21T14:37:50.480Z,3.15
2022-09-21T14:40:25.658Z,2.78
2022-09-21T14:42:56.577Z,0.90
2022-09-21T14:45:30.470Z,0.47
2022-09-21T14:48:30.392Z,0.43
2022-09-21T14:51:26.966Z,0.70
2022-09-21T14:54:17.367Z,0.80
2022-09-21T14:57:09.264Z,0.80
2022-09-21T14:59:48.312Z,0.80
2022-09-21T15:02:20.827Z,0.90
2022-09-21T15:05:03.962Z,0.40
2022-09-21T15:08:06.372Z,0.70
2022-09-21T15:10:56.524Z,0.60
2022-09-21T15:13:41.549Z,0.77
2022-09-21T15:16:26.133Z,0.50
2022-09-21T15:19:06.045Z,0.55
2022-09-21T15:21:32.912Z,0.60
2022-09-21T15:24:01.493Z,0.40
2022-09-21T15:26:30.870Z,0.50
2022-09-21T15:29:13.550Z,0.65
2022-09-21T15:31:41.547Z,0.50
2022-09-21T15:34:09.163Z,0.50
2022-09-21T15:36:39.229Z,0.60
2022-09-21T15:39:06.140Z,0.50
2022-09-21T15:41:44.877Z,0.70
2022-09-21T15:44:26.362Z,0.68
2022-09-21T15:47:00.033Z,0.70
2022-09-21T15:49:29.538Z,0.80
2022-09-21T15:52:12.795Z,0.70
2022-09-21T15:54:44.638Z,0.75
2022-09-21T15:57:39.008Z,0.80
2022-09-21T16:00:21.706Z,0.68
2022-09-21T16:03:04.517Z,0.98
2022-09-21T16:05:34.036Z,0.73
2022-09-21T16:08:26.747Z,0.75
2022-09-21T16:10:53.792Z,0.90
2022-09-21T16:13:43.528Z,0.60
2022-09-21T16:16:12.676Z,0.68
2022-09-21T16:18:44.445Z,0.68
2022-09-21T16:21:23.818Z,0.50
2022-09-21T16:23:51.940Z,0.63
2022-09-21T16:26:22.084Z,0.63
2022-09-21T16:28:49.081Z,0.52
2022-09-21T16:31:23.010Z,0.52
2022-09-21T16:33:49.305Z,0.75
2022-09-21T16:36:32.267Z,0.40
2022-09-21T16:39:00.234Z,0.70
2022-09-21T16:41:37.143Z,0.57
2022-09-21T16:44:03.661Z,0.77
2022-09-21T16:46:31.776Z,0.80
2022-09-21T16:49:00.215Z,1.05
2022-09-21T16:51:27.489Z,0.90
2022-09-21T16:53:55.593Z,0.80
2022-09-21T16:56:22.185Z,0.68
2022-09-21T16:58:48.605Z,0.95
2022-09-21T17:01:18.664Z,1.10
2022-09-21T17:03:47.116Z,0.80
2022-09-21T17:06:18.841Z,0.50
2022-09-21T17:08:49.133Z,0.75
2022-09-21T17:11:19.845Z,0.82
2022-09-21T17:13:50.302Z,0.68
2022-09-21T17:16:18.428Z,0.88
2022-09-21T17:18:45.817Z,0.60
2022-09-21T17:21:12.664Z,0.57
2022-09-21T17:23:39.106Z,0.50
2022-09-21T17:26:15.795Z,0.40
2022-09-21T17:28:44.308Z,0.52
2022-09-21T17:31:16.357Z,0.50
2022-09-21T17:33:43.407Z,0.60
2022-09-21T17:36:13.416Z,0.47
2022-09-21T17:38:39.797Z,0.50
2022-09-21T17:41:16.392Z,0.50
2022-09-21T17:43:53.546Z,0.52
2022-09-21T17:46:47.839Z,0.52
2022-09-21T17:49:14.475Z,0.40
2022-09-21T17:51:59.470Z,0.52
2022-09-21T17:54:26.007Z,0.60
2022-09-21T17:56:58.764Z,0.52
2022-09-21T17:59:33.764Z,0.80
2022-09-21T18:02:01.619Z,0.70
2022-09-21T18:04:30.486Z,0.60
2022-09-21T18:06:57.046Z,0.60
2022-09-21T18:09:23.620Z,0.50
2022-09-21T18:12:01.813Z,0.50
2022-09-21T18:14:48.984Z,0.90
2022-09-21T18:17:27.628Z,0.90
2022-09-21T18:20:06.203Z,1.05
2022-09-21T18:22:54.111Z,1.02
2022-09-21T18:25:30.421Z,1.20
2022-09-21T18:27:58.658Z,0.90
2022-09-21T18:30:26.164Z,1.30
2022-09-21T18:32:59.877Z,1.10
2022-09-21T18:35:44.017Z,1.25
2022-09-21T18:38:27.909Z,1.60
2022-09-21T18:41:05.331Z,1.65
2022-09-21T18:43:34.355Z,1.63
2022-09-21T18:46:03.897Z,1.58
2022-09-21T18:49:03.630Z,1.77
2022-09-21T18:51:47.556Z,1.50
2022-09-21T18:54:22.284Z,1.70
2022-09-21T18:56:49.020Z,1.65
2022-09-21T18:59:16.400Z,1.88
2022-09-21T19:01:44.068Z,1.70
2022-09-21T19:04:11.750Z,2.08
2022-09-21T19:06:48.602Z,1.70
2022-09-21T19:09:41.815Z,2.05
2022-09-21T19:13:00.078Z,2.25
2022-09-21T19:16:06.958Z,2.20
2022-09-21T19:18:43.078Z,2.10
2022-09-21T19:21:33.810Z,2.75
2022-09-21T19:24:19.963Z,3.22
2022-09-21T19:26:50.751Z,3.47
2022-09-21T19:29:41.337Z,2.60
2022-09-21T19:32:15.688Z,2.10
2022-09-21T19:34:42.417Z,1.73
2022-09-21T19:37:09.319Z,1.48
2022-09-21T19:39:36.863Z,1.30
2022-09-21T19:42:29.856Z,1.55
2022-09-21T19:45:18.173Z,1.80
2022-09-21T19:47:53.308Z,1.83
2022-09-21T19:50:25.848Z,1.92
2022-09-21T19:52:54.288Z,1.48
2022-09-21T19:55:40.181Z,1.63
2022-09-21T19:58:25.815Z,1.50
2022-09-21T20:00:54.368Z,1.70
2022-09-21T20:03:33.935Z,1.67
2022-09-21T20:06:12.787Z,1.58
2022-09-21T20:08:52.604Z,1.23
2022-09-21T20:11:42.169Z,1.25
2022-09-21T20:14:18.341Z,1.23
2022-09-21T20:16:54.729Z,1.50
2022-09-21T20:19:36.509Z,1.13
2022-09-21T20:22:13.454Z,1.40
2022-09-21T20:24:54.930Z,1.15
2022-09-21T20:27:36.358Z,1.20
2022-09-21T20:30:04.899Z,1.05
2022-09-21T20:32:32.164Z,1.15
2022-09-21T20:34:59.015Z,1.38
2022-09-21T20:37:27.424Z,1.02
2022-09-21T20:39:54.324Z,1.15
2022-09-21T20:42:26.833Z,1.25
2022-09-21T20:44:53.711Z,1.33
2022-09-21T20:47:20.370Z,1.65
2022-09-21T20:49:47.700Z,1.35
2022-09-21T20:52:17.661Z,1.42
2022-09-21T20:54:49.079Z,1.42
2022-09-21T20:57:16.825Z,1.30
2022-09-21T20:59:43.430Z,0.93
2022-09-21T21:02:11.781Z,1.02
2022-09-21T21:04:38.612Z,1.25
2022-09-21T21:07:05.776Z,1.10
2022-09-21T21:09:32.495Z,1.23
2022-09-21T21:11:59.361Z,1.70
2022-09-21T21:14:29.927Z,1.42
2022-09-21T21:16:56.420Z,1.80
2022-09-21T21:19:23.251Z,1.40
2022-09-21T21:21:49.673Z,1.55
2022-09-21T21:24:34.970Z,1.38
2022-09-21T21:27:03.030Z,1.65
2022-09-21T21:29:30.850Z,1.60
2022-09-21T21:31:58.941Z,1.20
2022-09-21T21:34:26.592Z,1.20
2022-09-21T21:36:53.230Z,1.42
2022-09-21T21:39:19.657Z,1.15
2022-09-21T21:41:46.494Z,1.30
2022-09-21T21:44:12.957Z,1.75
2022-09-21T21:46:39.354Z,1.48
2022-09-21T21:49:05.765Z,1.50
2022-09-21T21:51:33.465Z,1.55
2022-09-21T21:54:00.013Z,1.20
2022-09-21T21:56:26.535Z,1.50
2022-09-21T21:58:53.821Z,1.45
2022-09-21T22:01:26.234Z,1.25
2022-09-21T22:03:56.283Z,1.67
2022-09-21T22:06:22.815Z,1.27
2022-09-21T22:08:49.835Z,1.40
2022-09-21T22:11:17.549Z,1.70
2022-09-21T22:13:45.137Z,1.55
2022-09-21T22:16:17.412Z,1.60
2022-09-21T22:18:44.402Z,1.80
2022-09-21T22:21:13.378Z,1.50
2022-09-21T22:23:40.050Z,1.30
2022-09-21T22:26:14.736Z,1.60
2022-09-21T22:28:43.173Z,1.40
2022-09-21T22:31:12.475Z,1.52
2022-09-21T22:33:39.258Z,1.10
2022-09-21T22:36:08.629Z,1.85
2022-09-21T22:38:40.422Z,1.13
2022-09-21T22:41:11.425Z,1.73
2022-09-21T22:43:38.006Z,1.42
2022-09-21T22:46:05.255Z,1.65
2022-09-21T22:48:31.765Z,1.52
2022-09-21T22:50:58.144Z,1.23
2022-09-21T22:53:25.124Z,1.30
2022-09-21T22:56:12.120Z,1.67
2022-09-21T22:58:40.662Z,1.40
2022-09-21T23:01:13.617Z,1.45
2022-09-21T23:03:41.653Z,1.35
2022-09-21T23:06:11.506Z,1.40
2022-09-21T23:08:38.925Z,1.25
2022-09-21T23:11:19.665Z,1.38
2022-09-21T23:13:46.134Z,1.40
2022-09-21T23:16:13.761Z,1.58
2022-09-21T23:18:40.659Z,1.55
2022-09-21T23:21:12.344Z,1.48
2022-09-21T23:23:38.986Z,1.88
2022-09-21T23:26:16.633Z,1.45
2022-09-21T23:28:45.625Z,1.50
2022-09-21T23:31:14.627Z,1.60
2022-09-21T23:33:46.636Z,1.63
2022-09-21T23:36:14.878Z,1.35
2022-09-21T23:38:41.386Z,1.38
2022-09-21T23:41:11.769Z,1.67
2022-09-21T23:43:39.186Z,1.52
2022-09-21T23:46:06.091Z,1.70
2022-09-21T23:48:33.227Z,1.30
2022-09-21T23:50:59.893Z,1.23
2022-09-21T23:53:27.861Z,1.55
2022-09-21T23:55:55.214Z,1.50
2022-09-21T23:58:22.019Z,1.48
